Time;durP1;ratioP1;P1;durP2;ratioP2;P2;SDS_P1;SDS_P2;PMS_P1;PMS_P2;Temp;Humidity;BMP_temperature;BMP_pressure;BME280_temperature;BME280_humidity;BME280_pressure;Samples;Min_cycle;Max_cycle;Signal;HPM_P1;HPM_P2
2022/04/07 00:02:16;;;;;;;5.85;3.63;;;;;;;18.86;48.22;100036.50;4912206;29;20412;-78
2022/04/07 00:04:44;;;;;;;4.50;3.35;;;;;;;18.85;48.24;100033.97;4897746;29;20048;-78
2022/04/07 00:07:12;;;;;;;7.13;3.53;;;;;;;18.86;48.49;100033.81;4911692;29;20067;-79
2022/04/07 00:09:45;;;;;;;4.82;3.35;;;;;;;18.85;48.19;100037.50;4897130;29;20044;-78
2022/04/07 00:12:14;;;;;;;7.03;4.35;;;;;;;18.86;48.23;100032.97;4897825;29;20052;-78
2022/04/07 00:14:42;;;;;;;4.32;3.47;;;;;;;18.86;48.17;100028.44;4908915;29;20052;-79
2022/04/07 00:17:10;;;;;;;4.90;3.60;;;;;;;18.86;48.25;100019.56;4916616;29;20052;-78
2022/04/07 00:19:38;;;;;;;4.63;3.35;;;;;;;18.85;48.15;100017.88;4916105;29;20052;-79
2022/04/07 00:22:06;;;;;;;5.80;3.33;;;;;;;18.85;48.12;100018.72;4916120;29;20044;-78
2022/04/07 00:24:33;;;;;;;4.20;3.45;;;;;;;18.85;48.15;100012.53;4915707;29;20052;-79
2022/04/07 00:27:01;;;;;;;4.53;3.10;;;;;;;18.85;48.27;100015.22;4915734;29;20049;-79
2022/04/07 00:29:29;;;;;;;4.43;3.50;;;;;;;18.86;48.34;100016.88;4916062;29;20048;-79
2022/04/07 00:31:57;;;;;;;5.93;3.88;;;;;;;18.85;48.20;100009.84;4916213;29;20044;-79
2022/04/07 00:34:25;;;;;;;4.35;3.65;;;;;;;18.85;48.23;100013.38;4899371;29;20063;-79
2022/04/07 00:36:53;;;;;;;5.00;3.70;;;;;;;18.86;48.21;100015.03;4915447;29;20052;-79
2022/04/07 00:39:21;;;;;;;5.85;3.75;;;;;;;18.85;48.30;99999.13;4915576;28;20055;-79
2022/04/07 00:41:49;;;;;;;4.45;3.15;;;;;;;18.85;48.21;99989.22;4915984;29;20384;-79
2022/04/07 00:44:18;;;;;;;5.25;3.45;;;;;;;18.85;48.27;99988.38;4915980;29;20048;-78
2022/04/07 00:46:45;;;;;;;4.55;3.17;;;;;;;18.85;48.27;99989.22;4915180;29;20044;-78
2022/04/07 00:49:14;;;;;;;6.63;3.55;;;;;;;18.84;48.30;99982.19;4915919;29;20071;-77
2022/04/07 00:51:43;;;;;;;3.75;2.97;;;;;;;18.85;48.48;99978.50;4915854;28;20060;-78
2022/04/07 00:54:12;;;;;;;5.50;3.33;;;;;;;18.85;48.35;99977.66;4915394;29;20059;-78
2022/04/07 00:56:41;;;;;;;4.50;3.60;;;;;;;18.85;48.36;99978.50;4915976;29;20048;-78
2022/04/07 00:59:15;;;;;;;4.00;3.05;;;;;;;18.85;48.30;99970.47;4900000;28;20136;-78
2022/04/07 01:01:45;;;;;;;3.90;3.15;;;;;;;18.85;48.27;99977.66;4915757;29;20047;-78
2022/04/07 01:04:15;;;;;;;4.65;3.90;;;;;;;18.84;48.44;99965.22;4914334;29;20056;-78
2022/04/07 01:06:43;;;;;;;5.20;3.95;;;;;;;18.84;48.47;99966.09;4915175;29;20048;-78
2022/04/07 01:09:11;;;;;;;4.25;3.45;;;;;;;18.84;48.43;99967.91;4915067;29;20044;-79
2022/04/07 01:11:40;;;;;;;5.97;3.83;;;;;;;18.84;48.37;99973.25;4915656;29;20055;-78
2022/04/07 01:14:08;;;;;;;8.07;3.50;;;;;;;18.85;48.45;99977.66;4915163;29;20415;-78
2022/04/07 01:16:37;;;;;;;4.55;3.03;;;;;;;18.84;48.41;99979.50;4882520;29;20056;-78
2022/04/07 01:19:11;;;;;;;4.75;3.65;;;;;;;18.84;48.42;99979.50;4898242;29;20060;-79
2022/04/07 01:21:39;;;;;;;3.83;2.97;;;;;;;18.84;48.42;99973.25;4915643;29;20044;-78
2022/04/07 01:24:11;;;;;;;4.97;3.38;;;;;;;18.84;48.34;99965.22;4915623;29;20052;-78
2022/04/07 01:26:39;;;;;;;4.60;3.00;;;;;;;18.83;48.34;99969.75;4915370;29;20048;-78
2022/04/07 01:29:09;;;;;;;3.85;3.20;;;;;;;18.84;48.46;99975.94;4915062;29;20059;-78
2022/04/07 01:31:38;;;;;;;4.78;3.40;;;;;;;18.83;48.39;99967.06;4898310;29;20041;-78
2022/04/07 01:34:18;;;;;;;7.20;3.03;;;;;;;18.83;48.40;99963.53;4914623;29;20047;-79
2022/04/07 01:36:49;;;;;;;3.90;3.20;;;;;;;18.84;48.37;99970.59;4915218;29;20508;-78
2022/04/07 01:39:21;;;;;;;6.75;3.60;;;;;;;18.83;48.29;99961.69;4915357;29;20063;-79
2022/04/07 01:41:49;;;;;;;;;;;;;;;18.83;48.25;99958.19;4915309;29;20060;-78
2022/04/07 01:44:17;;;;;;;5.03;3.33;;;;;;;18.84;48.36;99965.22;4897894;29;19923;-78
2022/04/07 01:46:47;;;;;;;6.53;4.15;;;;;;;18.83;48.48;99963.53;4915404;29;20056;-78
2022/04/07 01:49:15;;;;;;;4.45;3.38;;;;;;;18.83;48.35;99952.81;4915051;29;20431;-79
2022/04/07 01:51:43;;;;;;;3.97;3.42;;;;;;;18.83;48.38;99950.97;4914872;29;20365;-78
2022/04/07 01:54:14;;;;;;;4.93;3.97;;;;;;;18.83;48.65;99947.44;4914437;29;20059;-78
2022/04/07 01:56:45;;;;;;;5.00;4.07;;;;;;;18.83;48.56;99947.44;4897084;29;20056;-78
2022/04/07 01:59:14;;;;;;;4.57;3.40;;;;;;;18.83;48.28;99952.81;4914146;29;20044;-78
2022/04/07 02:01:41;;;;;;;5.78;3.58;;;;;;;18.84;48.37;99949.13;4915052;29;20060;-78
2022/04/07 02:04:09;;;;;;;4.75;3.67;;;;;;;18.83;48.29;99950.13;4914215;29;20059;-79
2022/04/07 02:06:36;;;;;;;4.20;3.47;;;;;;;18.82;48.48;99943.94;4914265;29;20059;-79
2022/04/07 02:09:04;;;;;;;4.22;3.75;;;;;;;18.83;48.29;99947.44;4914419;29;20052;-79
2022/04/07 02:11:32;;;;;;;5.63;3.63;;;;;;;18.82;48.54;99951.97;4914155;29;20044;-79
2022/04/07 02:13:59;;;;;;;5.32;3.55;;;;;;;18.82;48.26;99943.94;4914095;29;20064;-78
2022/04/07 02:16:29;;;;;;;5.95;3.58;;;;;;;18.82;48.44;99949.28;4914127;29;20063;-78
2022/04/07 02:18:56;;;;;;;4.47;3.50;;;;;;;18.82;48.30;99937.72;4897360;29;20052;-78
2022/04/07 02:21:24;;;;;;;4.70;3.60;;;;;;;18.81;48.41;99934.22;4914639;29;20047;-78
2022/04/07 02:23:52;;;;;;;5.32;4.00;;;;;;;18.81;48.40;99931.53;4914640;29;20055;-78
2022/04/07 02:26:19;;;;;;;5.57;3.67;;;;;;;18.82;48.30;99941.25;4914136;29;20044;-78
2022/04/07 02:28:46;;;;;;;4.47;3.83;;;;;;;18.82;48.46;99935.03;4914718;29;20389;-78
2022/04/07 02:31:14;;;;;;;3.80;3.40;;;;;;;18.82;48.35;99933.19;4914405;29;20040;-78
2022/04/07 02:33:41;;;;;;;4.38;3.92;;;;;;;18.81;48.48;99923.47;4914042;29;20052;-78
2022/04/07 02:36:09;;;;;;;4.30;3.85;;;;;;;18.82;48.43;99930.53;4897353;29;20056;-78
2022/04/07 02:38:37;;;;;;;5.43;3.58;;;;;;;18.81;48.29;99928.00;4914634;29;20468;-78
2022/04/07 02:41:04;;;;;;;5.00;3.70;;;;;;;18.81;48.37;99920.81;4914424;29;20484;-78
2022/04/07 02:43:32;;;;;;;4.57;3.53;;;;;;;18.81;48.34;99918.13;4914073;29;20124;-78
2022/04/07 02:45:59;;;;;;;5.47;3.90;;;;;;;18.81;48.38;99911.91;4914391;29;20045;-78
2022/04/07 02:48:26;;;;;;;4.93;3.72;;;;;;;18.81;48.40;99909.22;4897798;29;20052;-78
2022/04/07 02:50:54;;;;;;;5.47;3.55;;;;;;;18.81;48.51;99914.59;4913686;29;20055;-79
2022/04/07 02:53:21;;;;;;;4.80;3.85;;;;;;;18.81;48.39;99911.91;4914270;29;20051;-78
2022/04/07 02:55:49;;;;;;;5.93;3.70;;;;;;;18.81;48.36;99911.91;4913693;29;20056;-78
2022/04/07 02:58:16;;;;;;;4.40;3.78;;;;;;;18.80;48.25;99921.81;4913951;29;20044;-79
2022/04/07 03:00:43;;;;;;;4.75;3.63;;;;;;;18.81;48.39;99918.13;4913789;29;20045;-79
2022/04/07 03:03:11;;;;;;;5.22;4.05;;;;;;;18.81;48.41;99917.28;4914373;29;20052;-78
2022/04/07 03:05:38;;;;;;;4.75;4.05;;;;;;;18.81;48.40;99922.63;4913570;29;20104;-79
2022/04/07 03:08:06;;;;;;;4.78;3.80;;;;;;;18.78;48.37;99919.25;4912315;29;20059;-78
2022/04/07 03:10:33;;;;;;;4.57;3.85;;;;;;;18.80;48.32;99931.66;4916325;29;20052;-78
2022/04/07 03:13:00;;;;;;;5.18;4.03;;;;;;;18.78;48.38;99929.97;4916830;29;20060;-80
2022/04/07 03:15:28;;;;;;;4.72;3.80;;;;;;;18.80;48.29;99931.66;4916649;29;20067;-78
2022/04/07 03:17:55;;;;;;;3.85;3.25;;;;;;;18.80;48.61;99932.53;4917181;29;20055;-77
2022/04/07 03:20:23;;;;;;;5.35;3.70;;;;;;;18.80;48.44;99937.03;4917417;29;20048;-78
2022/04/07 03:22:50;;;;;;;6.22;3.65;;;;;;;18.80;48.46;99937.88;4916652;29;20048;-78
2022/04/07 03:25:18;;;;;;;4.45;3.65;;;;;;;18.80;48.49;99937.88;4917207;29;20051;-78
2022/04/07 03:27:45;;;;;;;5.18;3.67;;;;;;;18.79;48.71;99936.19;4917246;29;20063;-78
2022/04/07 03:30:12;;;;;;;6.45;4.15;;;;;;;18.79;48.75;99936.19;4915317;29;20063;-78
2022/04/07 03:32:40;;;;;;;5.20;4.13;;;;;;;18.79;48.53;99933.50;4900366;29;20396;-78
2022/04/07 03:35:07;;;;;;;6.03;4.18;;;;;;;18.79;48.39;99933.50;4917085;29;20052;-77
2022/04/07 03:37:35;;;;;;;5.43;4.93;;;;;;;18.79;48.37;99938.84;4916513;29;20048;-77
2022/04/07 03:40:02;;;;;;;4.60;3.92;;;;;;;18.80;48.33;99928.97;4916503;29;20064;-77
2022/04/07 03:42:30;;;;;;;6.10;3.75;;;;;;;18.78;48.34;99924.63;4916884;29;20040;-77
2022/04/07 03:44:57;;;;;;;5.32;3.95;;;;;;;18.79;48.33;99930.81;4900107;28;20048;-77
2022/04/07 03:47:25;;;;;;;5.93;4.20;;;;;;;18.78;48.39;99935.34;4916689;29;20473;-77
2022/04/07 03:49:52;;;;;;;5.38;4.38;;;;;;;18.78;48.19;99937.19;4916317;29;20048;-77
2022/04/07 03:52:20;;;;;;;6.50;3.83;;;;;;;18.77;48.25;99933.66;4916190;29;20096;-77
2022/04/07 03:54:47;;;;;;;5.38;4.38;;;;;;;18.78;48.29;99937.19;4916238;29;20040;-77
2022/04/07 03:57:15;;;;;;;9.52;4.50;;;;;;;18.77;48.07;99928.28;4916638;29;20067;-78
2022/04/07 03:59:43;;;;;;;5.10;4.25;;;;;;;18.77;48.04;99936.34;4916038;29;20045;-78
2022/04/07 04:02:12;;;;;;;4.80;4.10;;;;;;;18.76;48.09;99929.28;4916249;29;20044;-78
2022/04/07 04:04:44;;;;;;;5.63;4.22;;;;;;;18.76;47.96;99937.34;4916299;29;20063;-78
2022/04/07 04:07:11;;;;;;;5.88;4.35;;;;;;;18.76;47.98;99931.97;4916329;29;20131;-77
2022/04/07 04:09:39;;;;;;;6.38;4.50;;;;;;;18.75;47.96;99932.94;4900148;29;20048;-77
2022/04/07 04:12:07;;;;;;;4.57;3.95;;;;;;;18.76;47.89;99942.69;4916432;29;20060;-77
2022/04/07 04:14:34;;;;;;;4.43;3.50;;;;;;;18.75;47.90;99941.00;4915825;29;20059;-77
2022/04/07 04:17:02;;;;;;;5.68;4.22;;;;;;;18.75;48.11;99943.69;4916601;29;20044;-77
2022/04/07 04:19:29;;;;;;;4.57;4.07;;;;;;;18.74;47.61;99936.63;4916212;29;20055;-75
2022/04/07 04:21:57;;;;;;;5.53;4.45;;;;;;;18.75;47.78;99935.63;4915334;28;20048;-76
2022/04/07 04:24:24;;;;;;;4.82;4.32;;;;;;;18.74;47.79;99944.69;4916317;29;20051;-76
2022/04/07 04:26:51;;;;;;;5.25;4.30;;;;;;;18.75;47.80;99950.88;4915787;29;20052;-75
2022/04/07 04:29:19;;;;;;;6.15;4.65;;;;;;;18.75;47.83;99937.47;4915782;29;20053;-75
2022/04/07 04:31:46;;;;;;;5.00;4.50;;;;;;;18.75;47.76;99945.50;4915786;29;20044;-76
2022/04/07 04:34:14;;;;;;;6.70;4.78;;;;;;;18.75;47.76;99941.00;4915849;29;20048;-76
2022/04/07 04:36:41;;;;;;;6.05;4.20;;;;;;;18.74;47.91;99943.84;4916412;29;20047;-76
2022/04/07 04:39:09;;;;;;;5.72;4.60;;;;;;;18.74;47.74;99957.25;4915468;29;20052;-76
2022/04/07 04:41:36;;;;;;;5.95;4.65;;;;;;;18.73;47.62;99969.81;4916066;29;20044;-76
2022/04/07 04:44:04;;;;;;;5.00;4.47;;;;;;;18.74;47.79;99968.81;4898727;29;20387;-76
2022/04/07 04:46:31;;;;;;;6.53;5.45;;;;;;;18.73;47.61;99968.97;4915837;29;20059;-77
2022/04/07 04:48:59;;;;;;;5.53;4.53;;;;;;;18.73;47.52;99969.81;4916104;29;20044;-78
2022/04/07 04:51:26;;;;;;;5.60;4.53;;;;;;;18.72;47.54;99964.59;4914309;29;20067;-78
2022/04/07 04:53:54;;;;;;;5.68;4.55;;;;;;;18.72;47.88;99964.59;4915596;29;20059;-77
2022/04/07 04:56:22;;;;;;;5.25;4.28;;;;;;;18.72;47.52;99964.59;4915205;29;20052;-77
2022/04/07 04:58:49;;;;;;;5.90;4.28;;;;;;;18.73;47.56;99966.28;4899555;29;20052;-78
2022/04/07 05:01:17;;;;;;;5.18;4.25;;;;;;;18.72;47.41;99969.97;4915549;29;20055;-78
2022/04/07 05:03:45;;;;;;;5.45;4.95;;;;;;;18.71;47.37;99974.47;4915489;29;20048;-78
2022/04/07 05:06:12;;;;;;;5.78;4.75;;;;;;;18.71;47.46;99974.47;4915135;29;20408;-78
2022/04/07 05:08:40;;;;;;;6.20;4.72;;;;;;;18.71;47.20;99977.13;4915564;29;20067;-77
2022/04/07 05:11:07;;;;;;;5.28;4.70;;;;;;;18.73;47.18;99985.06;4914989;29;20519;-77
2022/04/07 05:13:34;;;;;;;7.13;4.45;;;;;;;18.71;47.50;99993.22;4914821;29;20064;-77
2022/04/07 05:16:02;;;;;;;4.80;4.30;;;;;;;18.71;47.23;99987.03;4897667;29;20056;-77
2022/04/07 05:18:29;;;;;;;6.18;4.47;;;;;;;18.71;47.11;99997.75;4913440;29;20055;-77
2022/04/07 05:20:57;;;;;;;5.78;4.63;;;;;;;18.70;47.27;99996.06;4914802;29;20048;-77
2022/04/07 05:23:28;;;;;;;5.38;4.30;;;;;;;18.70;47.29;100002.28;4915654;29;20052;-76
2022/04/07 05:25:56;;;;;;;4.68;4.05;;;;;;;18.71;47.07;100006.63;4914973;29;20111;-77
2022/04/07 05:28:23;;;;;;;5.72;4.55;;;;;;;18.70;46.97;100006.78;4915197;29;20052;-77
2022/04/07 05:30:50;;;;;;;5.68;4.28;;;;;;;18.70;46.86;100013.00;4915601;29;20052;-77
2022/04/07 05:33:17;;;;;;;4.88;4.22;;;;;;;18.69;47.03;100013.97;4914045;29;20048;-78
2022/04/07 05:35:45;;;;;;;4.90;4.13;;;;;;;18.69;46.91;100016.66;4913762;29;20060;-78
2022/04/07 05:38:12;;;;;;;6.18;4.70;;;;;;;18.69;46.68;100024.69;4898043;29;20055;-77
2022/04/07 05:40:40;;;;;;;4.72;4.25;;;;;;;18.69;46.84;100021.16;4897845;29;20063;-77
2022/04/07 05:43:08;;;;;;;5.70;4.10;;;;;;;18.69;46.77;100018.47;4914689;28;20052;-77
2022/04/07 05:45:38;;;;;;;5.72;3.88;;;;;;;18.69;46.81;100026.53;4914550;29;20048;-77
2022/04/07 05:48:06;;;;;;;5.10;4.18;;;;;;;18.69;46.89;100031.88;4914949;29;20055;-77
2022/04/07 05:50:33;;;;;;;4.90;3.90;;;;;;;18.69;46.70;100023.84;4915009;29;20052;-77
2022/04/07 05:53:01;;;;;;;5.38;3.92;;;;;;;18.69;46.69;100034.56;4898274;29;20368;-77
2022/04/07 05:55:28;;;;;;;4.65;4.10;;;;;;;18.67;46.73;100023.97;4913130;29;20079;-77
2022/04/07 05:57:56;;;;;;;6.10;4.20;;;;;;;18.69;46.91;100023.84;4914467;29;20107;-78
2022/04/07 06:00:25;;;;;;;5.53;4.15;;;;;;;18.67;46.45;100021.28;4915141;29;20380;-77
2022/04/07 06:02:53;;;;;;;6.05;4.13;;;;;;;18.69;46.66;100026.53;4914968;29;20049;-77
2022/04/07 06:05:20;;;;;;;5.22;3.42;;;;;;;18.68;46.65;100030.22;4915070;29;20048;-77
2022/04/07 06:07:47;;;;;;;4.75;3.90;;;;;;;18.67;46.55;100023.13;4898164;29;20056;-77
2022/04/07 06:10:15;;;;;;;4.53;3.80;;;;;;;18.68;46.38;100025.69;4914155;29;20496;-79
2022/04/07 06:12:43;;;;;;;7.13;3.50;;;;;;;18.67;46.82;100029.34;4914670;29;20049;-79
2022/04/07 06:15:12;;;;;;;5.28;3.58;;;;;;;18.68;46.67;100031.06;4913994;29;20071;-78
2022/04/07 06:17:41;;;;;;;4.13;3.55;;;;;;;18.67;46.55;100037.38;4914250;29;20055;-77
2022/04/07 06:20:12;;;;;;;5.50;3.67;;;;;;;18.67;46.33;100039.22;4914242;29;20056;-77
2022/04/07 06:22:41;;;;;;;5.63;3.60;;;;;;;18.69;46.70;100037.25;4914895;29;20056;-77
2022/04/07 06:25:09;;;;;;;5.15;3.90;;;;;;;18.69;46.74;100031.88;4897258;29;20063;-76
2022/04/07 06:27:39;;;;;;;7.88;3.55;;;;;;;18.69;46.47;100035.41;4914048;29;20052;-76
2022/04/07 06:30:09;;;;;;;5.57;3.40;;;;;;;18.71;46.49;100041.50;4914467;29;20059;-77
2022/04/07 06:32:38;;;;;;;5.85;4.13;;;;;;;18.70;46.38;100039.81;4914575;29;20047;-76
2022/04/07 06:35:08;;;;;;;5.07;3.97;;;;;;;18.71;46.46;100046.84;4913531;29;20044;-77
2022/04/07 06:37:53;;;;;;;4.55;3.40;;;;;;;18.73;46.37;100036.84;4914279;29;20052;-75
2022/04/07 06:40:25;;;;;;;5.57;3.70;;;;;;;18.74;46.91;100033.16;4898274;28;20052;-76
2022/04/07 06:42:55;;;;;;;7.23;4.30;;;;;;;18.76;46.57;100036.56;4914190;29;20403;-75
2022/04/07 06:45:25;;;;;;;7.50;3.67;;;;;;;18.77;46.57;100030.19;4899905;29;20270;-75
2022/04/07 06:47:53;;;;;;;7.93;3.72;;;;;;;18.77;46.44;100024.00;4917157;29;20048;-77
2022/04/07 06:50:21;;;;;;;5.05;3.13;;;;;;;18.78;46.48;100021.16;4917824;29;20059;-76
2022/04/07 06:52:49;;;;;;;7.82;3.65;;;;;;;18.79;46.20;100024.66;4916934;29;20040;-75
2022/04/07 06:55:16;;;;;;;4.88;3.20;;;;;;;18.78;46.11;100026.50;4917137;29;20059;-76
2022/04/07 06:57:51;;;;;;;5.00;3.78;;;;;;;18.80;46.15;100020.16;4917064;29;20056;-76
2022/04/07 07:00:20;;;;;;;4.78;3.72;;;;;;;18.81;46.66;100020.00;4917642;29;20476;-76
2022/04/07 07:02:52;;;;;;;5.20;3.58;;;;;;;18.82;46.24;100018.16;4917171;29;20488;-76
2022/04/07 07:05:22;;;;;;;4.40;3.72;;;;;;;18.84;46.31;100018.84;4916699;29;20055;-76
2022/04/07 07:07:50;;;;;;;5.18;3.45;;;;;;;18.84;46.34;100019.72;4900877;29;20405;-75
2022/04/07 07:10:28;;;;;;;8.25;5.22;;;;;;;18.85;45.58;100021.41;4898376;29;20522;-75
2022/04/07 07:12:59;;;;;;;6.97;6.28;;;;;;;18.82;44.35;100015.50;4898116;29;20056;-77
2022/04/07 07:15:27;;;;;;;12.18;7.43;;;;;;;18.78;43.65;100014.94;4898258;29;20057;-75
2022/04/07 07:17:55;;;;;;;9.20;7.15;;;;;;;18.75;43.74;100016.06;4897897;29;20049;-75
2022/04/07 07:20:22;;;;;;;8.40;6.47;;;;;;;18.74;43.46;100019.75;4897903;29;20412;-76
2022/04/07 07:22:50;;;;;;;8.10;7.18;;;;;;;18.73;43.17;100025.28;4897872;28;20071;-75
2022/04/07 07:25:17;;;;;;;9.77;7.22;;;;;;;18.71;42.89;100028.09;4897604;29;20056;-76
2022/04/07 07:27:46;;;;;;;9.75;7.18;;;;;;;18.72;43.00;100026.28;4897689;29;20057;-76
2022/04/07 07:30:15;;;;;;;7.07;6.20;;;;;;;18.71;42.57;100025.41;4881478;29;20407;-76
2022/04/07 07:32:45;;;;;;;10.20;7.53;;;;;;;18.69;42.42;100024.69;4898105;29;20052;-75
2022/04/07 07:35:14;;;;;;;9.52;6.55;;;;;;;18.71;42.14;100021.88;4896525;29;20413;-75
2022/04/07 07:37:56;;;;;;;9.82;6.28;;;;;;;18.73;42.34;100014.56;4899401;29;20052;-76
2022/04/07 07:40:26;;;;;;;6.70;5.85;;;;;;;18.74;42.14;100022.44;4897572;29;20515;-76
2022/04/07 07:42:55;;;;;;;7.13;5.32;;;;;;;18.76;42.07;100019.63;4898488;29;20041;-75
2022/04/07 07:45:32;;;;;;;6.07;5.35;;;;;;;18.79;43.00;100027.34;4898044;29;20048;-76
2022/04/07 07:48:25;;;;;;;6.80;4.93;;;;;;;18.81;42.69;100027.22;4897966;29;20049;-76
2022/04/07 07:50:52;;;;;;;7.32;4.72;;;;;;;18.82;42.44;100021.69;4880268;29;20048;-75
2022/04/07 07:53:20;;;;;;;6.38;4.43;;;;;;;18.85;42.77;100028.63;4897965;29;20080;-76
2022/04/07 07:55:48;;;;;;;7.20;4.40;;;;;;;18.87;43.39;100035.50;4897736;29;20049;-76
2022/04/07 07:58:15;;;;;;;4.90;3.90;;;;;;;18.88;43.55;100030.97;4897719;29;20064;-76
2022/04/07 08:00:43;;;;;;;8.40;4.80;;;;;;;18.88;43.05;100033.66;4898364;29;20056;-76
2022/04/07 08:03:10;;;;;;;4.72;3.63;;;;;;;18.90;43.16;100035.22;4897808;29;20053;-76
2022/04/07 08:05:38;;;;;;;8.45;5.15;;;;;;;18.91;42.77;100030.69;4881295;29;20053;-75
2022/04/07 08:08:05;;;;;;;6.18;5.10;;;;;;;18.90;42.28;100021.78;4898662;29;20056;-76
2022/04/07 08:10:33;;;;;;;6.95;5.95;;;;;;;18.91;41.82;100019.97;4897374;29;20493;-76
2022/04/07 08:13:00;;;;;;;6.30;5.60;;;;;;;18.90;41.90;100018.28;4897392;29;20056;-75
2022/04/07 08:15:27;;;;;;;8.80;5.88;;;;;;;18.92;41.84;100016.28;4897091;29;20053;-75
2022/04/07 08:17:55;;;;;;;5.18;4.13;;;;;;;18.92;42.68;100011.78;4896868;29;20052;-75
2022/04/07 08:20:23;;;;;;;8.05;4.15;;;;;;;18.94;43.29;100019.66;4896759;29;20056;-75
2022/04/07 08:22:50;;;;;;;6.20;4.78;;;;;;;18.94;42.54;100009.78;4896947;29;20056;-76
2022/04/07 08:25:18;;;;;;;5.40;4.28;;;;;;;18.97;42.72;100005.97;4880089;29;20511;-75
2022/04/07 08:27:45;;;;;;;3.63;2.95;;;;;;;18.97;43.30;100009.50;4896781;29;20064;-75
2022/04/07 08:30:13;;;;;;;4.93;3.28;;;;;;;18.99;43.45;100012.00;4896856;29;20515;-74
2022/04/07 08:32:40;;;;;;;5.65;3.70;;;;;;;19.01;43.12;100015.41;4896789;29;20064;-75
2022/04/07 08:35:10;;;;;;;6.32;4.05;;;;;;;19.01;42.80;100020.78;4897175;29;20052;-75
2022/04/07 08:37:37;;;;;;;6.65;3.92;;;;;;;19.01;42.82;100018.09;4895902;29;20053;-75
2022/04/07 08:40:06;;;;;;;7.93;4.55;;;;;;;19.02;42.84;100017.91;4897126;29;20052;-75
2022/04/07 08:42:35;;;;;;;5.18;4.20;;;;;;;19.01;41.66;100013.56;4896467;29;20060;-75
2022/04/07 08:45:03;;;;;;;5.18;4.07;;;;;;;19.04;42.38;100017.78;4895969;29;20040;-76
2022/04/07 08:47:33;;;;;;;6.32;4.28;;;;;;;19.05;42.23;100002.53;4896868;29;20052;-75
2022/04/07 08:50:04;;;;;;;5.85;3.47;;;;;;;19.06;42.75;100023.00;4897224;29;20055;-76
2022/04/07 08:52:35;;;;;;;5.38;3.92;;;;;;;19.07;42.22;100036.25;4897616;29;20424;-77
2022/04/07 08:55:03;;;;;;;6.70;3.90;;;;;;;19.07;42.17;100038.94;4865182;29;20399;-75
2022/04/07 08:57:32;;;;;;;5.82;4.45;;;;;;;19.07;41.73;100038.94;4896342;29;20064;-76
2022/04/07 08:59:59;;;;;;;5.95;5.05;;;;;;;19.06;40.78;100042.63;4896360;29;20404;-75
2022/04/07 09:02:27;;;;;;;10.10;5.60;;;;;;;19.06;40.75;100034.56;4896310;29;20045;-76
2022/04/07 09:05:01;;;;;;;8.07;5.07;;;;;;;19.04;40.89;100025.84;4896178;29;20048;-76
2022/04/07 09:07:32;;;;;;;6.88;4.97;;;;;;;19.00;41.23;100019.09;4896217;29;20048;-76
2022/04/07 09:10:02;;;;;;;8.60;5.25;;;;;;;19.00;41.55;100024.44;4894895;29;20056;-76
2022/04/07 09:12:31;;;;;;;7.25;5.32;;;;;;;18.98;40.94;100021.91;4896150;29;20056;-75
2022/04/07 09:14:59;;;;;;;11.25;6.05;;;;;;;18.98;39.70;100015.69;4896034;29;20056;-74
2022/04/07 09:17:33;;;;;;;8.00;4.85;;;;;;;18.98;40.83;100019.22;4896097;28;20060;-75
2022/04/07 09:20:00;;;;;;;7.45;4.68;;;;;;;19.00;41.13;100013.72;4896179;29;20062;-77
2022/04/07 09:22:33;;;;;;;7.80;4.47;;;;;;;19.01;41.37;100018.09;4863901;29;20061;-75
2022/04/07 09:25:05;;;;;;;;;;;;;;;19.03;41.46;100018.75;4895472;29;20071;-78
2022/04/07 09:27:32;;;;;;;7.15;4.35;;;;;;;19.03;41.51;100019.59;4896117;29;19927;-77
2022/04/07 09:30:00;;;;;;;6.65;4.40;;;;;;;19.06;41.25;100020.31;4863746;29;20056;-75
2022/04/07 09:32:28;;;;;;;7.82;4.68;;;;;;;19.07;41.16;100025.53;4895820;29;20404;-77
2022/04/07 09:34:57;;;;;;;9.27;5.40;;;;;;;19.09;41.42;100020.88;4895772;29;20531;-77
2022/04/07 09:37:27;;;;;;;5.30;3.70;;;;;;;19.09;41.51;100020.88;4895716;29;20059;-77
2022/04/07 09:40:12;;;;;;;9.00;3.63;;;;;;;19.12;41.51;100022.38;4895562;29;20492;-77
2022/04/07 09:42:43;;;;;;;11.02;3.78;;;;;;;19.13;41.72;100016.03;4895948;29;20060;-77
2022/04/07 09:45:12;;;;;;;4.78;2.72;;;;;;;19.15;41.95;100014.03;4895841;29;20041;-77
2022/04/07 09:47:53;;;;;;;5.25;3.05;;;;;;;19.15;42.13;100006.84;4878828;29;20040;-77
2022/04/07 09:50:23;;;;;;;4.75;2.95;;;;;;;19.15;42.18;99997.94;4896352;29;20440;-77
2022/04/07 09:53:10;;;;;;;4.13;2.88;;;;;;;19.16;42.29;100000.50;4895548;29;20767;-77
2022/04/07 09:55:42;;;;;;;4.50;3.13;;;;;;;19.16;42.51;100000.50;4895983;29;20044;-77
2022/04/07 09:58:12;;;;;;;5.95;3.15;;;;;;;19.17;42.57;99987.91;4895931;28;20056;-77
2022/04/07 10:00:40;;;;;;;4.50;3.10;;;;;;;19.17;42.64;99983.41;4895784;29;20051;-76
2022/04/07 10:03:11;;;;;;;4.18;2.72;;;;;;;19.17;42.55;99974.50;4895498;29;20052;-77
2022/04/07 10:05:39;;;;;;;5.53;2.70;;;;;;;19.19;42.55;99983.22;4895628;29;20052;-77
2022/04/07 10:08:07;;;;;;;4.07;3.17;;;;;;;19.18;42.68;99982.38;4895759;29;20053;-76
2022/04/07 10:10:35;;;;;;;3.42;2.65;;;;;;;19.18;42.53;99960.94;4894186;29;20376;-77
2022/04/07 10:13:03;;;;;;;4.47;2.50;;;;;;;19.19;42.94;99964.44;4895447;29;20059;-77
2022/04/07 10:15:31;;;;;;;4.22;3.03;;;;;;;19.18;42.96;99966.28;4895398;29;20060;-77
2022/04/07 10:18:05;;;;;;;5.22;3.13;;;;;;;19.19;42.86;99959.09;4895591;29;20393;-77
2022/04/07 10:20:35;;;;;;;3.45;2.80;;;;;;;19.19;42.84;99959.91;4894992;29;20415;-77
2022/04/07 10:23:33;;;;;;;5.45;2.85;;;;;;;19.19;42.73;99959.91;4895295;29;20057;-77
2022/04/07 10:26:02;;;;;;;5.15;2.85;;;;;;;19.20;42.72;99948.22;4856146;29;20065;-76
2022/04/07 10:28:32;;;;;;;3.88;2.97;;;;;;;19.20;42.76;99955.41;4856326;29;20169;-77
2022/04/07 10:31:12;;;;;;;5.85;3.38;;;;;;;19.20;42.65;99958.06;4856066;29;20511;-76
2022/04/07 10:33:43;;;;;;;5.22;3.15;;;;;;;19.21;42.55;99949.06;4857582;29;20054;-78
2022/04/07 10:36:17;;;;;;;6.18;3.42;;;;;;;19.20;42.64;99958.94;4856347;29;20505;-77
2022/04/07 10:38:47;;;;;;;4.60;3.10;;;;;;;19.20;42.93;99958.94;4855937;29;20076;-77
2022/04/07 10:41:37;;;;;;;5.03;2.90;;;;;;;19.22;42.78;99961.47;4841799;29;20073;-77
2022/04/07 10:44:11;;;;;;;5.30;2.95;;;;;;;19.22;42.81;99956.09;4856166;29;20136;-77
2022/04/07 10:46:39;;;;;;;3.50;2.58;;;;;;;19.21;42.72;99957.94;4855778;29;20064;-78
2022/04/07 10:49:11;;;;;;;4.40;2.95;;;;;;;19.22;42.59;99948.06;4855737;29;20064;-77
2022/04/07 10:51:43;;;;;;;5.07;3.58;;;;;;;19.22;42.29;99948.88;4855838;29;20067;-77
2022/04/07 10:54:12;;;;;;;5.67;3.27;;;;;;;19.22;42.44;99953.41;4855670;29;20057;-75
2022/04/07 10:56:46;;;;;;;4.50;2.88;;;;;;;19.21;42.31;99941.84;4856104;29;20191;-77
2022/04/07 10:59:14;;;;;;;5.60;3.25;;;;;;;19.21;42.32;99939.16;4840224;29;20421;-74
2022/04/07 11:01:41;;;;;;;5.38;3.47;;;;;;;19.22;42.22;99943.53;4840597;29;20456;-76
2022/04/07 11:07:04;;;;;;;5.40;3.65;;;;;;;19.22;42.66;99940.84;4893886;29;20052;-77
2022/04/07 11:09:53;;;;;;;3.92;2.78;;;;;;;19.23;42.44;99944.38;4894592;29;20076;-78
2022/04/07 11:12:29;;;;;;;5.65;2.97;;;;;;;19.22;42.23;99946.22;4894190;29;20056;-77
2022/04/07 11:15:03;;;;;;;6.05;4.38;;;;;;;19.22;41.98;99940.84;4894354;29;20412;-78
2022/04/07 11:17:42;;;;;;;6.43;3.92;;;;;;;19.22;42.08;99935.47;4894633;29;20048;-76
2022/04/07 11:20:19;;;;;;;5.63;3.90;;;;;;;19.21;41.87;99928.44;4895665;29;20053;-77
2022/04/07 11:23:08;;;;;;;4.88;3.63;;;;;;;19.22;41.93;99923.91;4894865;29;20056;-77
2022/04/07 11:25:41;;;;;;;7.10;3.78;;;;;;;19.22;42.09;99926.59;4894599;29;20496;-77
2022/04/07 11:28:17;;;;;;;5.35;3.55;;;;;;;19.22;42.09;99926.59;4901690;28;20060;-76
2022/04/07 11:30:46;;;;;;;6.65;4.30;;;;;;;19.21;41.92;99923.06;4894401;29;20048;-77
2022/04/07 11:33:20;;;;;;;6.30;4.07;;;;;;;19.21;41.90;99923.06;4896413;29;20045;-77
2022/04/07 11:36:00;;;;;;;5.90;4.28;;;;;;;19.21;41.89;99925.75;4896311;29;20048;-77
2022/04/07 11:38:32;;;;;;;6.78;3.90;;;;;;;19.21;41.98;99908.81;4898060;29;20055;-77
2022/04/07 11:41:03;;;;;;;7.43;4.17;;;;;;;19.21;42.05;99908.81;4881198;29;20060;-80
2022/04/07 11:43:33;;;;;;;10.65;3.97;;;;;;;19.22;42.15;99910.50;4897734;29;20056;-77